Time;durP1;ratioP1;P1;durP2;ratioP2;P2;SDS_P1;SDS_P2;PMS_P1;PMS_P2;Temp;Humidity;BMP_temperature;BMP_pressure;BME280_temperature;BME280_humidity;BME280_pressure;Samples;Min_cycle;Max_cycle;Signal;HPM_P1;HPM_P2
2023/01/07 00:01:04;;;;;;;5.03;2.15;;;6.50;96.90;;;;;;4997169;28;87811;-75
2023/01/07 00:03:30;;;;;;;7.07;2.45;;;6.40;96.70;;;;;;4998119;28;87270;-75
2023/01/07 00:06:05;;;;;;;7.68;2.47;;;6.30;96.60;;;;;;5004830;28;86691;-77
2023/01/07 00:08:34;;;;;;;5.15;2.50;;;6.20;96.70;;;;;;4996475;28;88097;-76
2023/01/07 00:11:04;;;;;;;6.90;2.63;;;6.10;96.50;;;;;;4994695;28;88049;-74
2023/01/07 00:13:31;;;;;;;5.82;2.50;;;6.00;96.50;;;;;;4997412;28;88188;-75
2023/01/07 00:15:58;;;;;;;6.85;2.75;;;5.90;96.50;;;;;;4996771;28;87393;-75
2023/01/07 00:18:26;;;;;;;5.00;2.30;;;5.80;96.40;;;;;;4998574;28;88091;-74
2023/01/07 00:20:55;;;;;;;6.03;2.38;;;5.70;96.50;;;;;;4997886;28;89174;-75
2023/01/07 00:23:23;;;;;;;6.18;2.42;;;5.70;96.60;;;;;;5001095;28;87399;-73
2023/01/07 00:25:57;;;;;;;5.10;2.47;;;5.60;96.60;;;;;;5000855;28;87364;-74
2023/01/07 00:28:23;;;;;;;5.53;2.33;;;5.60;96.80;;;;;;5000478;28;87810;-75
2023/01/07 00:30:49;;;;;;;6.53;2.78;;;5.50;97.00;;;;;;5001302;28;86969;-76
2023/01/07 00:33:16;;;;;;;7.50;2.67;;;5.40;97.30;;;;;;5001048;28;87298;-76
2023/01/07 00:35:44;;;;;;;7.43;2.58;;;5.40;97.50;;;;;;4999541;28;89005;-76
2023/01/07 00:38:10;;;;;;;7.90;2.33;;;5.40;97.60;;;;;;5000708;28;89041;-76
2023/01/07 00:40:36;;;;;;;5.40;2.50;;;5.40;97.80;;;;;;5006803;28;88209;-76
2023/01/07 00:43:04;;;;;;;6.25;2.58;;;5.40;97.60;;;;;;5000797;28;86946;-76
2023/01/07 00:45:35;;;;;;;6.20;2.42;;;5.30;97.70;;;;;;4999348;28;87253;-75
2023/01/07 00:48:02;;;;;;;6.68;2.70;;;5.20;97.80;;;;;;4997955;28;87491;-75
2023/01/07 00:50:32;;;;;;;5.97;2.42;;;5.20;98.00;;;;;;4999435;28;88414;-76
2023/01/07 00:52:57;;;;;;;6.90;2.53;;;5.10;98.10;;;;;;4999450;28;87448;-76
2023/01/07 00:55:24;;;;;;;6.30;2.53;;;5.10;98.50;;;;;;4999515;28;86656;-73
2023/01/07 00:57:50;;;;;;;6.32;2.55;;;5.10;98.90;;;;;;5000765;28;87651;-76
2023/01/07 01:00:18;;;;;;;6.00;2.70;;;5.10;98.80;;;;;;4999529;28;87683;-75
2023/01/07 01:02:45;;;;;;;6.65;2.92;;;5.00;98.90;;;;;;4999873;28;88684;-72
2023/01/07 01:05:11;;;;;;;7.07;2.97;;;5.00;99.00;;;;;;4992927;28;88123;-73
2023/01/07 01:07:37;;;;;;;5.63;2.83;;;5.00;99.10;;;;;;4999850;28;88356;-74
2023/01/07 01:10:04;;;;;;;6.00;2.53;;;5.00;99.10;;;;;;5000178;28;87393;-74
2023/01/07 01:12:29;;;;;;;6.35;2.80;;;5.00;99.20;;;;;;4997798;28;87435;-75
2023/01/07 01:14:55;;;;;;;7.68;3.05;;;4.90;98.90;;;;;;5007332;28;87348;-73
2023/01/07 01:17:22;;;;;;;6.28;2.75;;;4.90;99.20;;;;;;4999834;28;88567;-73
2023/01/07 01:19:47;;;;;;;9.55;3.25;;;4.80;99.30;;;;;;4999978;28;87854;-73
2023/01/07 01:22:13;;;;;;;7.15;2.90;;;4.80;99.70;;;;;;4999628;28;87381;-74
2023/01/07 01:24:39;;;;;;;5.38;2.63;;;4.80;99.80;;;;;;4999301;28;87163;-75
2023/01/07 01:27:04;;;;;;;7.60;2.92;;;4.70;99.80;;;;;;4999828;28;88691;-74
2023/01/07 01:29:30;;;;;;;6.13;3.00;;;4.70;99.90;;;;;;4999481;28;88827;-75
2023/01/07 01:31:56;;;;;;;5.95;2.80;;;4.70;99.90;;;;;;5004161;28;87197;-75
2023/01/07 01:34:21;;;;;;;6.80;3.17;;;4.70;99.80;;;;;;4999935;28;87334;-75
2023/01/07 01:36:47;;;;;;;7.93;2.80;;;4.70;99.80;;;;;;4998954;28;87665;-76
2023/01/07 01:39:13;;;;;;;6.63;2.72;;;4.60;99.80;;;;;;5000071;28;87797;-74
2023/01/07 01:41:38;;;;;;;8.00;3.33;;;4.60;99.90;;;;;;4999578;28;87510;-74
2023/01/07 01:44:26;;;;;;;6.95;2.90;;;4.60;99.90;;;;;;5000324;28;86714;-75
2023/01/07 01:46:52;;;;;;;6.53;3.10;;;4.60;99.90;;;;;;4998778;28;88111;-76
2023/01/07 01:49:23;;;;;;;6.90;2.92;;;4.60;99.90;;;;;;5004820;28;88322;-77
2023/01/07 01:51:58;;;;;;;6.85;3.28;;;4.50;99.90;;;;;;5000108;28;88464;-76
2023/01/07 01:54:24;;;;;;;9.60;3.72;;;4.40;99.90;;;;;;4998410;28;87632;-76
2023/01/07 01:56:53;;;;;;;12.52;5.05;;;4.40;99.90;;;;;;4999685;28;88207;-76
2023/01/07 01:59:24;;;;;;;13.48;6.10;;;4.40;99.90;;;;;;4999779;28;87591;-75
2023/01/07 02:01:50;;;;;;;13.98;5.55;;;4.30;99.90;;;;;;4998919;28;87484;-75
2023/01/07 02:04:19;;;;;;;10.80;4.60;;;4.30;99.90;;;;;;5001685;28;87339;-76
2023/01/07 02:07:13;;;;;;;13.07;4.43;;;4.20;99.90;;;;;;4999030;28;88683;-76
2023/01/07 02:09:39;;;;;;;8.70;3.50;;;4.10;99.90;;;;;;5000805;28;88018;-76
2023/01/07 02:12:24;;;;;;;10.43;3.70;;;4.10;99.90;;;;;;5000346;28;87299;-76
2023/01/07 02:15:13;;;;;;;12.70;4.20;;;4.10;99.90;;;;;;4997529;28;87242;-75
2023/01/07 02:17:55;;;;;;;7.05;3.60;;;4.00;99.90;;;;;;4999030;28;89219;-75
2023/01/07 02:20:41;;;;;;;7.55;3.92;;;3.90;99.90;;;;;;4997313;28;89091;-75
2023/01/07 02:23:44;;;;;;;9.88;4.05;;;3.90;99.90;;;;;;5000012;28;87185;-75
2023/01/07 02:26:53;;;;;;;9.98;3.72;;;3.80;99.90;;;;;;4997038;28;87304;-75
2023/01/07 02:29:37;;;;;;;11.40;4.18;;;3.80;99.90;;;;;;4950689;28;87824;-75
2023/01/07 02:32:21;;;;;;;9.75;4.13;;;3.70;99.90;;;;;;4990305;28;87969;-75
2023/01/07 02:35:01;;;;;;;7.60;3.95;;;3.70;99.90;;;;;;4999349;28;87461;-73
2023/01/07 02:37:48;;;;;;;8.73;4.20;;;3.70;99.90;;;;;;4993130;28;86678;-74
2023/01/07 02:40:48;;;;;;;12.30;4.63;;;3.60;99.90;;;;;;4999577;28;88670;-73
2023/01/07 02:43:31;;;;;;;10.23;3.53;;;3.60;99.90;;;;;;4998105;28;87422;-73
2023/01/07 02:46:18;;;;;;;8.15;3.65;;;3.50;99.90;;;;;;4989749;28;88297;-74
2023/01/07 02:48:45;;;;;;;11.85;5.70;;;3.50;99.90;;;;;;4995788;28;88281;-74
2023/01/07 02:51:11;;;;;;;13.57;6.22;;;3.50;99.90;;;;;;4998076;28;88166;-75
2023/01/07 02:53:38;;;;;;;12.68;6.40;;;3.50;99.90;;;;;;4998494;28;87859;-73
2023/01/07 02:56:42;;;;;;;10.40;4.82;;;3.50;99.90;;;;;;4995922;28;87252;-73
2023/01/07 02:59:37;;;;;;;8.85;4.40;;;3.50;99.90;;;;;;4973640;28;87522;-73
2023/01/07 03:02:24;;;;;;;11.63;3.80;;;3.50;99.90;;;;;;4981229;28;87616;-73
2023/01/07 03:05:07;;;;;;;7.72;3.80;;;3.40;99.90;;;;;;4997753;28;87011;-73
2023/01/07 03:07:48;;;;;;;;;;;3.40;99.90;;;;;;4998496;28;87485;-74
2023/01/07 03:10:28;;;;;;;9.75;3.67;;;3.40;99.90;;;;;;4999869;28;87987;-75
2023/01/07 03:13:12;;;;;;;8.90;3.85;;;3.40;99.90;;;;;;4997625;28;89987;-74
2023/01/07 03:15:39;;;;;;;8.50;3.97;;;3.30;99.90;;;;;;4995721;28;88208;-73
2023/01/07 03:18:12;;;;;;;8.70;4.00;;;3.30;99.90;;;;;;4997843;28;87320;-73
2023/01/07 03:20:40;;;;;;;8.73;4.20;;;3.30;99.90;;;;;;4998196;28;87576;-75
2023/01/07 03:23:10;;;;;;;11.23;4.30;;;3.20;99.90;;;;;;4997571;28;88014;-76
2023/01/07 03:25:41;;;;;;;8.77;3.80;;;3.30;99.90;;;;;;4995462;28;87397;-75
2023/01/07 03:28:08;;;;;;;10.35;4.45;;;3.30;99.90;;;;;;4998029;28;87699;-74
2023/01/07 03:30:35;;;;;;;9.70;4.07;;;3.30;99.90;;;;;;4998773;28;86676;-74
2023/01/07 03:33:16;;;;;;;8.57;4.10;;;3.30;99.90;;;;;;4996907;28;88192;-73
2023/01/07 03:35:46;;;;;;;10.05;4.43;;;3.30;99.90;;;;;;4984509;28;87861;-76
2023/01/07 03:38:15;;;;;;;9.18;4.47;;;3.30;99.90;;;;;;4996868;28;88464;-75
2023/01/07 03:40:41;;;;;;;7.85;3.50;;;3.30;99.90;;;;;;4996428;28;87413;-75
2023/01/07 03:43:16;;;;;;;9.27;4.15;;;3.30;99.90;;;;;;4996876;28;88121;-74
2023/01/07 03:45:42;;;;;;;8.43;3.42;;;3.30;99.90;;;;;;4995833;28;87867;-75
2023/01/07 03:48:08;;;;;;;7.40;3.15;;;3.30;99.90;;;;;;4999130;28;87590;-76
2023/01/07 03:50:33;;;;;;;9.82;3.97;;;3.30;99.90;;;;;;4996636;28;87747;-75
2023/01/07 03:52:59;;;;;;;8.75;3.92;;;3.20;99.90;;;;;;4997314;28;87621;-75
2023/01/07 03:55:25;;;;;;;9.60;3.75;;;3.20;99.90;;;;;;4999837;28;87389;-76
2023/01/07 03:57:50;;;;;;;8.23;3.90;;;3.20;99.90;;;;;;4999899;28;87533;-75
2023/01/07 04:00:16;;;;;;;10.32;4.07;;;3.20;99.90;;;;;;4998978;28;87514;-75
2023/01/07 04:02:43;;;;;;;9.13;3.97;;;3.20;99.90;;;;;;4998690;28;88941;-74
2023/01/07 04:05:09;;;;;;;9.20;4.13;;;3.20;99.90;;;;;;5008958;28;88138;-77
2023/01/07 04:07:35;;;;;;;10.20;4.30;;;3.20;99.90;;;;;;5000902;28;87417;-78
2023/01/07 04:10:01;;;;;;;11.05;4.45;;;3.20;99.90;;;;;;5000348;28;87467;-76
2023/01/07 04:12:27;;;;;;;9.35;4.07;;;3.20;99.90;;;;;;5000559;28;88161;-74
2023/01/07 04:14:52;;;;;;;8.32;3.78;;;3.20;99.90;;;;;;5000906;28;86992;-77
2023/01/07 04:17:18;;;;;;;9.85;4.35;;;3.10;99.90;;;;;;4999708;28;87584;-77
2023/01/07 04:19:44;;;;;;;9.75;3.92;;;3.10;99.90;;;;;;5000889;28;87337;-76
2023/01/07 04:22:10;;;;;;;8.63;3.78;;;3.10;99.90;;;;;;5001213;28;88107;-75
2023/01/07 04:24:36;;;;;;;11.27;3.78;;;3.10;99.90;;;;;;5000864;28;87949;-74
2023/01/07 04:27:02;;;;;;;6.35;3.08;;;3.00;99.90;;;;;;4999548;28;88421;-74
2023/01/07 04:29:28;;;;;;;8.05;3.67;;;3.00;99.90;;;;;;5000742;28;87306;-74
2023/01/07 04:31:54;;;;;;;9.05;3.80;;;3.00;99.90;;;;;;4999916;28;87617;-74
2023/01/07 04:34:19;;;;;;;9.57;3.22;;;2.90;99.90;;;;;;4999470;28;88101;-75
2023/01/07 04:36:45;;;;;;;7.50;3.50;;;2.90;99.90;;;;;;4999425;28;87468;-74
2023/01/07 04:39:11;;;;;;;7.25;2.72;;;3.00;99.90;;;;;;5010944;28;87515;-74
2023/01/07 04:41:37;;;;;;;7.90;2.70;;;2.90;99.90;;;;;;5000326;28;87529;-75
2023/01/07 04:44:03;;;;;;;6.13;2.75;;;3.00;99.90;;;;;;4996068;28;88478;-74
2023/01/07 04:46:29;;;;;;;10.32;2.60;;;3.00;99.90;;;;;;4986190;28;88317;-74
2023/01/07 04:48:55;;;;;;;7.20;2.40;;;2.90;99.90;;;;;;4991901;28;87923;-72
2023/01/07 04:51:20;;;;;;;7.60;2.63;;;2.90;99.90;;;;;;4985526;28;90233;-73
2023/01/07 04:53:46;;;;;;;5.65;2.50;;;2.90;99.90;;;;;;4988068;28;89336;-74
2023/01/07 04:56:12;;;;;;;8.73;2.55;;;2.90;99.90;;;;;;4996890;28;87470;-75
2023/01/07 04:58:38;;;;;;;5.60;2.40;;;2.90;99.90;;;;;;4993487;28;87209;-75
2023/01/07 05:01:03;;;;;;;5.13;2.20;;;3.00;99.90;;;;;;4989013;28;89133;-75
2023/01/07 05:03:30;;;;;;;6.97;2.38;;;3.00;99.90;;;;;;4996539;28;89372;-75
2023/01/07 05:05:56;;;;;;;5.75;2.13;;;3.00;99.90;;;;;;4995987;28;87549;-75
2023/01/07 05:08:22;;;;;;;5.53;2.25;;;3.10;99.90;;;;;;4999881;28;86580;-75
2023/01/07 05:10:51;;;;;;;6.38;2.22;;;3.00;99.90;;;;;;4998969;28;87405;-74
2023/01/07 05:13:19;;;;;;;5.25;1.90;;;3.10;99.90;;;;;;4999417;28;87845;-74
2023/01/07 05:15:45;;;;;;;5.65;2.13;;;3.10;99.90;;;;;;4989265;28;88396;-72
2023/01/07 05:18:11;;;;;;;5.30;2.30;;;3.10;99.90;;;;;;4999727;28;87237;-74
2023/01/07 05:20:37;;;;;;;4.63;1.92;;;3.10;99.90;;;;;;4996626;28;87080;-74
2023/01/07 05:23:04;;;;;;;5.88;2.33;;;3.10;99.90;;;;;;4996620;28;87891;-74
2023/01/07 05:25:30;;;;;;;6.03;2.47;;;3.10;99.90;;;;;;4997460;28;87437;-73
2023/01/07 05:27:56;;;;;;;7.63;2.53;;;3.10;99.90;;;;;;4998126;28;87508;-74
2023/01/07 05:30:22;;;;;;;7.85;2.30;;;3.10;99.90;;;;;;4995128;28;88117;-73
2023/01/07 05:32:47;;;;;;;5.18;2.35;;;3.10;99.90;;;;;;4996292;28;87870;-73
2023/01/07 05:35:13;;;;;;;5.72;2.28;;;3.00;99.90;;;;;;4997279;28;87430;-74
2023/01/07 05:37:39;;;;;;;7.05;2.28;;;3.00;99.90;;;;;;4992727;28;87572;-74
2023/01/07 05:40:05;;;;;;;8.23;2.63;;;3.00;99.90;;;;;;4996426;28;88680;-74
2023/01/07 05:42:31;;;;;;;6.03;2.38;;;2.90;99.90;;;;;;4995791;28;89027;-74
2023/01/07 05:44:57;;;;;;;8.18;2.80;;;2.90;99.90;;;;;;4996333;28;87328;-76
2023/01/07 05:47:22;;;;;;;8.05;2.85;;;2.90;99.90;;;;;;5000402;28;87707;-75
2023/01/07 05:49:48;;;;;;;6.82;2.83;;;2.80;99.90;;;;;;4996587;28;88293;-74
2023/01/07 05:52:14;;;;;;;8.38;2.58;;;2.80;99.90;;;;;;4993263;28;87906;-73
2023/01/07 05:54:40;;;;;;;8.75;2.90;;;2.70;99.90;;;;;;4992012;28;87338;-75
2023/01/07 05:57:05;;;;;;;9.98;3.08;;;2.70;99.90;;;;;;4985089;28;86820;-76
2023/01/07 05:59:33;;;;;;;8.65;3.00;;;2.60;99.90;;;;;;4995933;28;88720;-76
2023/01/07 06:02:00;;;;;;;7.03;2.80;;;2.50;99.90;;;;;;4994935;28;87540;-76
2023/01/07 06:04:26;;;;;;;6.55;2.75;;;2.50;99.90;;;;;;4989345;28;89488;-74
2023/01/07 06:06:52;;;;;;;7.07;2.90;;;2.40;99.90;;;;;;4994234;28;89188;-72
2023/01/07 06:09:17;;;;;;;7.68;2.80;;;2.40;99.90;;;;;;4992048;28;88904;-74
2023/01/07 06:11:43;;;;;;;8.30;3.08;;;2.30;99.90;;;;;;4996974;28;87677;-74
2023/01/07 06:14:09;;;;;;;7.57;3.10;;;2.30;99.90;;;;;;4997010;28;87306;-73
2023/01/07 06:16:35;;;;;;;9.25;2.97;;;2.30;99.90;;;;;;4993844;28;87495;-73
2023/01/07 06:19:00;;;;;;;7.28;3.03;;;2.20;99.90;;;;;;4993010;28;88452;-72
2023/01/07 06:21:26;;;;;;;12.10;3.30;;;2.20;99.90;;;;;;4987865;28;87875;-73
2023/01/07 06:23:52;;;;;;;9.40;3.08;;;2.20;99.90;;;;;;4997654;28;87559;-74
2023/01/07 06:26:17;;;;;;;8.32;3.33;;;2.20;99.90;;;;;;4996492;28;87424;-75
2023/01/07 06:28:43;;;;;;;9.93;3.78;;;2.10;99.90;;;;;;4986322;28;88439;-73
2023/01/07 06:31:10;;;;;;;8.15;3.58;;;2.10;99.90;;;;;;4993599;28;88671;-74
2023/01/07 06:33:39;;;;;;;9.80;3.75;;;2.10;99.90;;;;;;4996810;28;87231;-73
2023/01/07 06:36:06;;;;;;;8.43;3.55;;;2.10;99.90;;;;;;4995176;28;88309;-73
2023/01/07 06:38:32;;;;;;;8.02;3.25;;;2.10;99.90;;;;;;4989586;28;87640;-73
2023/01/07 06:40:58;;;;;;;10.02;3.25;;;2.10;99.90;;;;;;4992274;28;87894;-72
2023/01/07 06:43:24;;;;;;;8.32;3.53;;;2.10;99.90;;;;;;4990255;28;87386;-74
2023/01/07 06:45:50;;;;;;;9.35;3.83;;;2.10;99.90;;;;;;4990791;28;86492;-74
2023/01/07 06:48:16;;;;;;;10.55;4.30;;;2.00;99.90;;;;;;4986846;28;89062;-73
2023/01/07 06:50:43;;;;;;;8.52;4.07;;;2.00;99.90;;;;;;4989801;28;89051;-71
2023/01/07 06:53:09;;;;;;;9.13;4.32;;;1.90;99.90;;;;;;4990691;28;88737;-72
2023/01/07 06:55:34;;;;;;;9.05;3.90;;;1.90;99.90;;;;;;4992040;28;87126;-74
2023/01/07 06:58:00;;;;;;;12.85;5.80;;;1.90;99.90;;;;;;4994585;28;88273;-72
2023/01/07 07:00:26;;;;;;;11.52;3.67;;;1.90;99.90;;;;;;4987734;28;88723;-74
2023/01/07 07:02:52;;;;;;;8.93;3.17;;;2.00;99.90;;;;;;4986745;28;87873;-73
2023/01/07 07:05:18;;;;;;;10.07;3.50;;;2.00;99.90;;;;;;4986207;28;87473;-72
2023/01/07 07:07:44;;;;;;;8.20;3.45;;;2.00;99.90;;;;;;4993469;28;87665;-74
2023/01/07 07:10:10;;;;;;;8.43;3.33;;;2.00;99.90;;;;;;4996344;28;86748;-72
2023/01/07 07:12:37;;;;;;;12.00;3.60;;;1.90;99.90;;;;;;4993599;28;87463;-72
2023/01/07 07:15:04;;;;;;;10.93;3.40;;;1.90;99.90;;;;;;4994883;28;87520;-74
2023/01/07 07:17:30;;;;;;;8.57;3.30;;;1.90;99.90;;;;;;4984433;28;89901;-75
2023/01/07 07:19:56;;;;;;;9.18;3.63;;;1.90;99.90;;;;;;4990385;28;89356;-73
2023/01/07 07:22:22;;;;;;;9.55;3.63;;;1.90;99.90;;;;;;4992752;28;88514;-75
2023/01/07 07:24:47;;;;;;;9.77;3.65;;;2.00;99.90;;;;;;4983626;28;88333;-75
2023/01/07 07:27:13;;;;;;;10.18;3.95;;;2.00;99.90;;;;;;4996593;28;88597;-74
2023/01/07 07:29:39;;;;;;;8.30;3.40;;;2.00;99.90;;;;;;4995439;28;88648;-74
2023/01/07 07:32:04;;;;;;;10.50;3.95;;;2.00;99.90;;;;;;4986947;28;88218;-74
2023/01/07 07:34:30;;;;;;;10.43;4.00;;;2.00;99.90;;;;;;4996907;28;86661;-73
2023/01/07 07:36:56;;;;;;;10.43;4.28;;;2.00;99.90;;;;;;4993915;28;87257;-74
2023/01/07 07:39:22;;;;;;;10.05;4.22;;;2.00;99.90;;;;;;4987497;28;87729;-75
2023/01/07 07:41:47;;;;;;;9.27;3.95;;;2.00;99.90;;;;;;4992990;28;88954;-75
2023/01/07 07:44:13;;;;;;;8.93;4.03;;;2.00;99.90;;;;;;4988547;28;87015;-74
2023/01/07 07:46:39;;;;;;;11.80;4.20;;;2.10;99.90;;;;;;4984805;28;89307;-74
2023/01/07 07:49:04;;;;;;;9.27;4.03;;;2.10;99.90;;;;;;4986739;28;87528;-73
2023/01/07 07:51:31;;;;;;;10.73;4.03;;;2.30;99.90;;;;;;4986870;28;87266;-74
2023/01/07 07:53:56;;;;;;;9.40;4.32;;;2.40;99.90;;;;;;4984675;28;88181;-74
2023/01/07 07:56:22;;;;;;;11.10;4.03;;;2.40;99.90;;;;;;4986188;28;89649;-74
2023/01/07 07:58:48;;;;;;;10.73;3.85;;;2.40;99.90;;;;;;4983231;28;88217;-74
2023/01/07 08:01:13;;;;;;;10.40;4.28;;;2.50;99.90;;;;;;4992589;28;87715;-74
2023/01/07 08:03:39;;;;;;;14.75;6.25;;;2.70;99.90;;;;;;4983864;28;87698;-72
2023/01/07 08:06:05;;;;;;;11.20;5.13;;;2.80;99.90;;;;;;4989143;28;89029;-74
2023/01/07 08:08:31;;;;;;;14.57;5.63;;;2.90;99.90;;;;;;4981946;28;89427;-72
2023/01/07 08:10:56;;;;;;;13.20;5.20;;;3.00;99.90;;;;;;4983488;28;88608;-73
2023/01/07 08:13:23;;;;;;;11.45;5.22;;;3.10;99.90;;;;;;4986537;28;87201;-73
2023/01/07 08:15:49;;;;;;;13.65;5.68;;;3.20;99.90;;;;;;4994829;28;88052;-74
2023/01/07 08:18:14;;;;;;;15.55;6.15;;;3.30;99.90;;;;;;4989546;28;88355;-74
2023/01/07 08:20:40;;;;;;;17.13;5.82;;;3.30;99.90;;;;;;4996711;28;87545;-74
2023/01/07 08:23:07;;;;;;;14.68;6.18;;;3.50;99.90;;;;;;4997021;28;86363;-74
2023/01/07 08:25:33;;;;;;;14.55;6.22;;;3.70;99.90;;;;;;4994406;28;91015;-75
2023/01/07 08:28:00;;;;;;;13.45;5.82;;;3.90;99.90;;;;;;4994327;28;87562;-74
2023/01/07 08:30:27;;;;;;;13.88;6.47;;;4.10;99.70;;;;;;4995148;28;88297;-73
2023/01/07 08:32:52;;;;;;;13.57;6.18;;;4.30;98.70;;;;;;4995198;28;87474;-72
2023/01/07 08:35:18;;;;;;;12.70;5.22;;;4.50;97.80;;;;;;4995454;28;87746;-71
2023/01/07 08:37:44;;;;;;;13.48;5.10;;;5.00;97.00;;;;;;4995318;28;87526;-71
2023/01/07 08:40:11;;;;;;;11.20;5.30;;;5.80;95.50;;;;;;4996977;28;87530;-72
2023/01/07 08:42:37;;;;;;;12.70;5.43;;;7.00;91.80;;;;;;5000139;28;87449;-73
2023/01/07 08:45:04;;;;;;;17.52;5.88;;;7.40;89.50;;;;;;4999340;28;88263;-72
2023/01/07 08:47:30;;;;;;;12.00;5.53;;;7.60;88.20;;;;;;5000267;28;89234;-70
2023/01/07 08:49:56;;;;;;;13.93;6.43;;;7.50;88.00;;;;;;4997372;28;88542;-73
2023/01/07 08:52:23;;;;;;;12.30;6.28;;;7.60;86.90;;;;;;4989510;28;87417;-75
2023/01/07 08:54:49;;;;;;;12.90;6.07;;;8.00;85.70;;;;;;4986641;28;88582;-73
2023/01/07 08:57:17;;;;;;;13.35;5.82;;;8.90;84.00;;;;;;4987962;28;90367;-75
2023/01/07 08:59:42;;;;;;;14.55;6.30;;;9.10;79.80;;;;;;4993119;28;88083;-75
2023/01/07 09:02:16;;;;;;;12.63;5.88;;;8.80;80.80;;;;;;4990215;28;87587;-72
2023/01/07 09:04:42;;;;;;;14.02;5.45;;;8.60;80.40;;;;;;4990892;28;88350;-75
2023/01/07 09:07:08;;;;;;;11.48;5.35;;;8.20;81.20;;;;;;4987692;28;87931;-75
2023/01/07 09:09:35;;;;;;;11.85;5.25;;;7.90;82.90;;;;;;4993953;28;87529;-74
2023/01/07 09:12:01;;;;;;;10.82;4.90;;;7.70;83.00;;;;;;5000088;28;86687;-74
2023/01/07 09:14:27;;;;;;;10.48;4.65;;;7.60;84.00;;;;;;4988697;28;88297;-74
2023/01/07 09:16:53;;;;;;;10.20;4.65;;;7.30;84.80;;;;;;4986992;28;87951;-75
2023/01/07 09:19:19;;;;;;;12.60;4.97;;;7.30;85.50;;;;;;4995895;28;90176;-74
2023/01/07 09:21:44;;;;;;;9.52;3.75;;;7.30;85.70;;;;;;4995884;28;87162;-74
2023/01/07 09:24:10;;;;;;;7.93;3.20;;;7.40;85.90;;;;;;4987535;28;88197;-74
2023/01/07 09:26:36;;;;;;;10.73;3.20;;;7.60;84.50;;;;;;4990256;28;88287;-75
2023/01/07 09:29:02;;;;;;;4.38;2.08;;;8.20;83.40;;;;;;4986942;28;89022;-75
2023/01/07 09:31:28;;;;;;;5.28;1.35;;;8.70;79.80;;;;;;4985056;28;87800;-76
2023/01/07 09:33:54;;;;;;;10.48;1.52;;;8.80;77.90;;;;;;4986300;28;88136;-74
2023/01/07 09:36:19;;;;;;;5.45;1.50;;;8.50;78.70;;;;;;4988377;28;88459;-75
2023/01/07 09:38:45;;;;;;;5.07;1.75;;;8.60;79.30;;;;;;4986404;28;87849;-75
2023/01/07 09:41:39;;;;;;;5.63;1.90;;;9.20;78.20;;;;;;4986258;28;89119;-75
2023/01/07 09:44:30;;;;;;;4.53;1.98;;;9.30;76.60;;;;;;4986486;28;90208;-76
2023/01/07 09:46:57;;;;;;;5.38;2.22;;;10.60;75.20;;;;;;4981827;28;89361;-74
2023/01/07 09:49:28;;;;;;;5.35;1.63;;;11.90;73.50;;;;;;4983186;28;87713;-76
2023/01/07 09:52:03;;;;;;;4.07;1.30;;;12.20;68.60;;;;;;4987008;28;87693;-75
2023/01/07 09:54:31;;;;;;;4.43;1.35;;;11.80;67.70;;;;;;4969596;28;88046;-76
2023/01/07 09:56:57;;;;;;;4.22;1.70;;;12.50;67.80;;;;;;4973031;28;88361;-76
2023/01/07 09:59:23;;;;;;;3.72;1.50;;;14.10;63.70;;;;;;4967905;28;87654;-74
2023/01/07 10:02:19;;;;;;;3.38;1.23;;;15.10;61.70;;;;;;4976235;28;88168;-76
2023/01/07 10:04:59;;;;;;;;;;;16.00;58.80;;;;;;4974235;28;88731;-78
2023/01/07 10:07:38;;;;;;;6.43;2.40;;;15.80;57.40;;;;;;4975441;28;87632;-75
2023/01/07 10:10:27;;;;;;;4.45;2.00;;;14.50;58.50;;;;;;4971578;28;88663;-76
2023/01/07 10:13:16;;;;;;;4.63;1.50;;;14.00;61.00;;;;;;4970294;28;88593;-77
2023/01/07 10:16:11;;;;;;;6.35;1.70;;;13.70;61.70;;;;;;4966764;28;89698;-74
2023/01/07 10:18:55;;;;;;;4.90;2.00;;;13.80;62.10;;;;;;4954119;28;88766;-76
2023/01/07 10:21:36;;;;;;;3.75;1.73;;;13.70;62.30;;;;;;4974131;28;88900;-75
2023/01/07 10:24:10;;;;;;;4.53;2.17;;;13.70;63.10;;;;;;4973984;28;90764;-75
2023/01/07 10:26:41;;;;;;;5.15;1.95;;;12.80;64.60;;;;;;4975114;28;90979;-75
2023/01/07 10:29:27;;;;;;;4.78;1.90;;;11.90;67.40;;;;;;4974276;28;88447;-75
2023/01/07 10:31:58;;;;;;;4.60;2.28;;;11.40;69.80;;;;;;4981610;28;89076;-75
2023/01/07 10:34:30;;;;;;;6.28;3.17;;;11.20;71.50;;;;;;4979618;28;88370;-75
2023/01/07 10:37:22;;;;;;;5.70;3.20;;;11.00;74.00;;;;;;4976556;28;89170;-76
2023/01/07 10:40:06;;;;;;;6.97;3.28;;;10.80;74.90;;;;;;4973662;28;89310;-77
2023/01/07 10:42:36;;;;;;;6.80;3.28;;;10.70;76.50;;;;;;4979458;28;87632;-75
2023/01/07 10:45:14;;;;;;;6.50;3.30;;;10.50;77.60;;;;;;4975528;28;89252;-75
2023/01/07 10:48:01;;;;;;;5.88;3.38;;;10.60;78.10;;;;;;4981764;28;87905;-75
2023/01/07 10:50:41;;;;;;;7.03;3.42;;;10.60;78.50;;;;;;4979939;28;87782;-74
2023/01/07 10:53:29;;;;;;;6.50;3.45;;;10.60;78.70;;;;;;4980715;28;88562;-77
2023/01/07 10:56:04;;;;;;;7.57;3.80;;;10.40;79.50;;;;;;4978115;28;88615;-75
2023/01/07 10:58:38;;;;;;;6.10;3.33;;;10.20;81.00;;;;;;4975245;28;88610;-76
2023/01/07 11:01:04;;;;;;;8.68;3.42;;;10.00;81.00;;;;;;4977930;28;89762;-76
2023/01/07 11:03:32;;;;;;;7.25;3.50;;;10.00;82.10;;;;;;4979078;28;89557;-75
2023/01/07 11:06:03;;;;;;;7.50;3.47;;;10.00;83.00;;;;;;4975514;28;89309;-72
2023/01/07 11:08:39;;;;;;;7.22;3.50;;;9.90;83.50;;;;;;4983643;28;87606;-76
2023/01/07 11:11:09;;;;;;;11.30;5.03;;;9.90;83.90;;;;;;4983173;28;88006;-76
2023/01/07 11:13:40;;;;;;;10.57;4.47;;;9.90;83.50;;;;;;4978990;28;87698;-74
2023/01/07 11:16:20;;;;;;;6.35;3.38;;;9.90;84.50;;;;;;4973211;28;88835;-75
2023/01/07 11:19:01;;;;;;;9.52;4.35;;;9.90;84.20;;;;;;4975133;28;88665;-76
2023/01/07 11:21:30;;;;;;;6.78;3.50;;;9.70;84.70;;;;;;4977699;28;87607;-76
2023/01/07 11:23:56;;;;;;;5.82;3.10;;;9.70;84.90;;;;;;4977779;28;87969;-76
2023/01/07 11:26:26;;;;;;;5.95;3.38;;;9.70;85.30;;;;;;4977519;28;87612;-75
2023/01/07 11:28:58;;;;;;;5.72;3.13;;;9.70;85.80;;;;;;4968929;28;89796;-75
2023/01/07 11:32:04;;;;;;;7.15;3.28;;;9.70;85.40;;;;;;4974633;28;88887;-78
2023/01/07 11:34:59;;;;;;;6.30;3.35;;;9.70;84.60;;;;;;4897311;28;89039;-74
2023/01/07 11:37:39;;;;;;;6.60;2.50;;;9.60;84.80;;;;;;4976542;28;88956;-75
2023/01/07 11:40:14;;;;;;;5.78;2.45;;;9.40;84.30;;;;;;4969742;28;88880;-75
2023/01/07 11:43:19;;;;;;;5.20;2.67;;;9.30;85.30;;;;;;4976020;28;87549;-75
2023/01/07 11:45:57;;;;;;;6.68;2.20;;;9.30;85.30;;;;;;4977371;28;88699;-75
2023/01/07 11:48:28;;;;;;;4.45;2.10;;;9.20;86.00;;;;;;4973709;28;88246;-78
2023/01/07 11:50:58;;;;;;;7.40;3.30;;;9.00;86.60;;;;;;4974690;28;88727;-76
2023/01/07 11:53:33;;;;;;;7.30;3.35;;;9.00;87.20;;;;;;4975119;28;88090;-75
2023/01/07 11:56:12;;;;;;;7.53;3.20;;;9.00;87.20;;;;;;4977407;28;89630;-77
2023/01/07 11:58:44;;;;;;;6.75;3.20;;;9.10;88.00;;;;;;4966065;28;89688;-77
2023/01/07 12:01:09;;;;;;;5.30;2.80;;;9.10;87.50;;;;;;4973778;28;87734;-75
2023/01/07 12:03:38;;;;;;;5.80;2.75;;;9.10;87.90;;;;;;4970996;28;88690;-75
2023/01/07 12:06:18;;;;;;;5.65;2.53;;;9.10;88.10;;;;;;4972797;28;87809;-78
2023/01/07 12:09:10;;;;;;;5.32;2.60;;;9.10;89.00;;;;;;4964397;28;89123;-75
2023/01/07 12:11:41;;;;;;;6.30;2.92;;;9.10;90.10;;;;;;4952944;28;89705;-76
2023/01/07 12:14:30;;;;;;;5.47;2.70;;;9.10;87.90;;;;;;4967490;28;88049;-77
2023/01/07 12:17:10;;;;;;;6.43;3.05;;;9.10;88.40;;;;;;4974773;28;87547;-77
2023/01/07 12:19:49;;;;;;;5.35;2.90;;;9.10;88.50;;;;;;4978445;28;87884;-75
2023/01/07 12:22:20;;;;;;;5.20;2.78;;;9.10;88.60;;;;;;4975024;28;89883;-76
2023/01/07 12:25:00;;;;;;;6.97;3.05;;;9.00;88.90;;;;;;4972367;28;91605;-76
2023/01/07 12:27:39;;;;;;;6.57;3.30;;;9.00;88.80;;;;;;4968430;28;89211;-77
2023/01/07 12:30:32;;;;;;;6.22;2.83;;;9.10;88.60;;;;;;4977523;28;88355;-76
2023/01/07 12:33:13;;;;;;;7.00;2.80;;;9.20;89.10;;;;;;4976407;28;88350;-75
2023/01/07 12:35:42;;;;;;;7.47;3.08;;;9.20;88.80;;;;;;4974486;28;87919;-74
2023/01/07 12:38:15;;;;;;;5.60;2.75;;;9.20;89.30;;;;;;4974419;28;89810;-76
2023/01/07 12:40:53;;;;;;;6.80;3.38;;;9.20;88.40;;;;;;4978909;28;87789;-77
2023/01/07 12:43:32;;;;;;;8.57;2.88;;;9.10;88.90;;;;;;4979135;28;89111;-75
2023/01/07 12:46:03;;;;;;;8.40;4.18;;;9.10;88.40;;;;;;4978360;28;88314;-75
2023/01/07 12:48:48;;;;;;;6.22;2.92;;;9.00;88.50;;;;;;4977742;28;88953;-75
2023/01/07 12:51:23;;;;;;;7.13;2.78;;;8.90;88.60;;;;;;4978078;28;87702;-75
2023/01/07 12:53:58;;;;;;;6.00;2.85;;;8.90;88.80;;;;;;4979543;28;88132;-74
2023/01/07 12:56:27;;;;;;;5.10;2.85;;;8.80;88.70;;;;;;4980635;28;90237;-76
2023/01/07 12:59:12;;;;;;;5.28;2.65;;;8.70;89.30;;;;;;4979180;28;88342;-75
2023/01/07 13:01:47;;;;;;;5.75;2.75;;;8.70;89.20;;;;;;4973810;28;88651;-75
2023/01/07 13:04:31;;;;;;;5.32;2.60;;;8.70;89.40;;;;;;4972334;28;91280;-77
2023/01/07 13:07:22;;;;;;;5.55;2.72;;;8.70;89.60;;;;;;4969542;28;90364;-76
2023/01/07 13:10:01;;;;;;;6.45;3.10;;;8.80;89.70;;;;;;4974597;28;87658;-74
2023/01/07 13:12:47;;;;;;;6.82;3.30;;;8.80;88.70;;;;;;4980527;28;87712;-76